createdAt,value
2019-03-12T00:01:48.615Z,5.40
2019-03-12T00:04:19.275Z,5.30
2019-03-12T00:06:50.631Z,5.30
2019-03-12T00:09:21.636Z,5.30
2019-03-12T00:11:52.709Z,5.30
2019-03-12T00:14:22.848Z,5.30
2019-03-12T00:16:53.455Z,5.30
2019-03-12T00:19:24.952Z,5.30
2019-03-12T00:21:55.874Z,5.30
2019-03-12T00:24:26.753Z,5.30
2019-03-12T00:26:57.755Z,5.30
2019-03-12T00:29:28.475Z,5.30
2019-03-12T00:31:59.407Z,5.40
2019-03-12T00:34:29.567Z,5.40
2019-03-12T00:36:59.643Z,5.40
2019-03-12T00:39:30.242Z,5.40
2019-03-12T00:42:01.183Z,5.30
2019-03-12T00:44:33.106Z,5.30
2019-03-12T00:47:04.274Z,5.20
2019-03-12T00:49:34.782Z,5.20
2019-03-12T00:52:05.961Z,5.10
2019-03-12T00:54:36.282Z,5.10
2019-03-12T00:57:06.838Z,5.00
2019-03-12T00:59:37.578Z,4.90
2019-03-12T01:02:08.908Z,4.90
2019-03-12T01:04:39.794Z,4.90
2019-03-12T01:07:11.000Z,4.90
2019-03-12T01:09:41.750Z,4.90
2019-03-12T01:12:12.644Z,4.80
2019-03-12T01:14:43.576Z,4.80
2019-03-12T01:17:14.514Z,4.70
2019-03-12T01:19:45.196Z,4.70
2019-03-12T01:22:15.787Z,4.70
2019-03-12T01:24:48.010Z,4.60
2019-03-12T01:27:18.954Z,4.60
2019-03-12T01:29:49.910Z,4.60
2019-03-12T01:32:21.053Z,4.50
2019-03-12T01:34:52.202Z,4.40
2019-03-12T01:37:22.530Z,4.30
2019-03-12T01:39:53.074Z,4.30
2019-03-12T01:42:24.432Z,4.30
2019-03-12T01:44:55.564Z,4.30
2019-03-12T01:47:26.923Z,4.30
2019-03-12T01:49:57.239Z,4.20
2019-03-12T01:52:33.415Z,4.20
2019-03-12T01:55:04.799Z,4.20
2019-03-12T01:57:35.399Z,4.20
2019-03-12T02:00:08.871Z,4.20
2019-03-12T02:02:40.156Z,4.10
2019-03-12T02:05:12.127Z,4.10
2019-03-12T02:07:43.271Z,4.10
2019-03-12T02:10:15.234Z,4.00
2019-03-12T02:12:45.983Z,4.00
2019-03-12T02:15:17.756Z,4.00
2019-03-12T02:17:49.907Z,3.90
2019-03-12T02:20:21.183Z,3.90
2019-03-12T02:22:52.201Z,3.90
2019-03-12T02:25:22.731Z,3.90
2019-03-12T02:27:53.063Z,4.00
2019-03-12T02:30:24.003Z,4.00
2019-03-12T02:32:54.605Z,4.00
2019-03-12T02:35:25.205Z,4.00
2019-03-12T02:37:56.173Z,4.00
2019-03-12T02:40:26.767Z,4.00
2019-03-12T02:42:57.695Z,4.00
2019-03-12T02:45:28.232Z,3.90
2019-03-12T02:47:58.729Z,3.90
2019-03-12T02:50:29.506Z,3.90
2019-03-12T02:53:00.070Z,3.80
2019-03-12T02:55:31.385Z,3.80
2019-03-12T02:58:02.145Z,3.70
2019-03-12T03:00:33.061Z,3.70
2019-03-12T03:03:03.140Z,3.60
2019-03-12T03:05:37.732Z,3.60
2019-03-12T03:08:09.706Z,3.50
2019-03-12T03:10:40.113Z,3.50
2019-03-12T03:13:11.598Z,3.50
2019-03-12T03:15:43.998Z,3.60
2019-03-12T03:18:14.601Z,3.50
2019-03-12T03:20:44.915Z,3.50
2019-03-12T03:23:17.127Z,3.50
2019-03-12T03:25:48.040Z,3.50
2019-03-12T03:28:18.985Z,3.40
2019-03-12T03:30:49.121Z,3.40
2019-03-12T03:33:20.042Z,3.40
2019-03-12T03:35:50.494Z,3.40
2019-03-12T03:38:20.902Z,3.40
2019-03-12T03:40:51.256Z,3.50
2019-03-12T03:43:22.363Z,3.50
2019-03-12T03:45:53.249Z,3.60
2019-03-12T03:48:24.669Z,3.60
2019-03-12T03:50:55.817Z,3.70
2019-03-12T03:53:25.914Z,3.70
2019-03-12T03:55:57.295Z,3.70
2019-03-12T03:58:28.654Z,3.70
2019-03-12T04:00:59.310Z,3.70
2019-03-12T04:03:30.883Z,3.80
2019-03-12T04:06:02.098Z,3.70
2019-03-12T04:08:33.034Z,3.70
2019-03-12T04:11:04.170Z,3.70
2019-03-12T04:13:34.858Z,3.70
2019-03-12T04:16:06.477Z,3.60
2019-03-12T04:18:37.219Z,3.60
2019-03-12T04:21:07.963Z,3.60
2019-03-12T04:23:39.306Z,3.50
2019-03-12T04:26:09.836Z,3.50
2019-03-12T04:28:40.318Z,3.50
2019-03-12T04:31:11.525Z,3.40
2019-03-12T04:34:22.398Z,3.40
2019-03-12T04:36:53.961Z,3.50
2019-03-12T04:39:25.158Z,3.50
2019-03-12T04:41:56.449Z,3.50
2019-03-12T04:44:27.602Z,3.50
2019-03-12T04:46:57.654Z,3.50
2019-03-12T04:49:28.417Z,3.50
2019-03-12T04:51:59.097Z,3.50
2019-03-12T04:54:29.929Z,3.50
2019-03-12T04:57:00.685Z,3.50
2019-03-12T04:59:31.418Z,3.50
2019-03-12T05:02:02.573Z,3.50
2019-03-12T05:04:33.050Z,3.40
2019-03-12T05:07:03.636Z,3.40
2019-03-12T05:09:34.836Z,3.40
2019-03-12T05:12:05.518Z,3.40
2019-03-12T05:14:38.302Z,3.40
2019-03-12T05:17:16.350Z,3.40
2019-03-12T05:19:47.145Z,3.30
2019-03-12T05:22:19.944Z,3.30
2019-03-12T05:24:51.290Z,3.30
2019-03-12T05:27:24.764Z,3.30
2019-03-12T05:29:53.938Z,3.30
2019-03-12T05:32:24.869Z,3.30
2019-03-12T05:34:55.476Z,3.30
2019-03-12T05:37:26.214Z,3.20
2019-03-12T05:39:56.351Z,3.10
2019-03-12T05:42:27.072Z,3.10
2019-03-12T05:44:58.016Z,3.10
2019-03-12T05:47:28.346Z,3.10
2019-03-12T05:49:58.948Z,3.10
2019-03-12T05:52:30.232Z,3.10
2019-03-12T05:55:00.972Z,3.10
2019-03-12T05:57:32.326Z,3.10
2019-03-12T06:00:02.945Z,3.10
2019-03-12T06:02:33.946Z,3.10
2019-03-12T06:05:05.333Z,3.20
2019-03-12T06:07:35.482Z,3.20
2019-03-12T06:10:06.196Z,3.20
2019-03-12T06:12:37.359Z,3.20
2019-03-12T06:15:08.085Z,3.20
2019-03-12T06:17:38.782Z,3.30
2019-03-12T06:20:09.841Z,3.30
2019-03-12T06:22:40.445Z,3.40
2019-03-12T06:25:12.098Z,3.40
2019-03-12T06:27:42.544Z,3.50
2019-03-12T06:30:14.308Z,3.50
2019-03-12T06:32:53.929Z,3.60
2019-03-12T06:35:29.889Z,3.60
2019-03-12T06:38:22.433Z,3.60
2019-03-12T06:41:00.959Z,3.60
2019-03-12T06:43:48.461Z,3.60
2019-03-12T06:46:40.463Z,3.60
2019-03-12T06:49:23.561Z,3.60
2019-03-12T06:52:04.749Z,3.60
2019-03-12T06:55:12.339Z,3.70
2019-03-12T06:58:23.346Z,3.70
2019-03-12T07:01:23.737Z,3.80
2019-03-12T07:04:19.181Z,3.80
2019-03-12T07:07:00.970Z,3.90
2019-03-12T07:09:56.871Z,4.00
2019-03-12T07:12:52.610Z,4.30
2019-03-12T07:15:54.705Z,4.80
2019-03-12T07:18:41.010Z,5.50
2019-03-12T07:21:23.103Z,6.20
2019-03-12T07:24:15.251Z,6.70
2019-03-12T07:27:02.985Z,7.20
2019-03-12T07:29:51.138Z,7.70
2019-03-12T07:32:39.485Z,7.90
2019-03-12T07:35:27.836Z,8.00
2019-03-12T07:38:34.975Z,7.80
2019-03-12T07:41:24.565Z,7.70
2019-03-12T07:44:10.142Z,7.40
2019-03-12T07:47:05.437Z,7.10
2019-03-12T07:49:55.137Z,7.00
2019-03-12T07:52:43.217Z,7.50
2019-03-12T07:55:35.589Z,8.40
2019-03-12T07:58:35.302Z,9.00
2019-03-12T08:01:32.791Z,9.00
2019-03-12T08:04:20.933Z,8.80
2019-03-12T08:07:02.925Z,8.60
2019-03-12T08:09:49.753Z,8.30
2019-03-12T08:12:39.426Z,8.00
2019-03-12T08:15:22.918Z,8.10
2019-03-12T08:18:09.562Z,8.90
2019-03-12T08:20:46.948Z,9.80
2019-03-12T08:23:23.342Z,10.50
2019-03-12T08:26:19.162Z,10.80
2019-03-12T08:29:01.568Z,11.00
2019-03-12T08:31:42.866Z,11.20
2019-03-12T08:34:29.130Z,11.20
2019-03-12T08:37:07.474Z,11.30
2019-03-12T08:39:44.322Z,11.50
2019-03-12T08:42:30.668Z,11.80
2019-03-12T08:45:28.844Z,12.00
2019-03-12T08:48:36.236Z,12.20
2019-03-12T08:51:17.444Z,12.40
2019-03-12T08:53:58.307Z,12.80
2019-03-12T08:56:36.312Z,12.90
2019-03-12T08:59:34.766Z,13.00
2019-03-12T09:02:28.386Z,13.60
2019-03-12T09:05:05.475Z,13.50
2019-03-12T09:07:46.648Z,12.70
2019-03-12T09:10:42.596Z,12.40
2019-03-12T09:13:32.580Z,12.40
2019-03-12T09:16:25.634Z,12.20
2019-03-12T09:19:09.065Z,12.10
2019-03-12T09:21:55.170Z,11.90
2019-03-12T09:24:59.906Z,11.90
2019-03-12T09:27:41.094Z,12.00
2019-03-12T09:30:33.863Z,12.30
2019-03-12T09:33:18.295Z,12.60
2019-03-12T09:36:00.617Z,12.90
2019-03-12T09:38:41.315Z,13.30
2019-03-12T09:41:34.247Z,13.00
2019-03-12T09:44:12.653Z,12.70
2019-03-12T09:46:59.439Z,12.50
2019-03-12T09:49:52.211Z,12.90
2019-03-12T09:52:39.868Z,13.00
2019-03-12T09:55:26.240Z,13.20
2019-03-12T09:58:03.670Z,13.00
2019-03-12T10:01:05.349Z,12.60
2019-03-12T10:03:51.559Z,12.10
2019-03-12T10:06:44.560Z,11.50
2019-03-12T10:09:38.196Z,11.40
2019-03-12T10:12:40.244Z,11.20
2019-03-12T10:15:28.105Z,11.00
2019-03-12T10:18:08.751Z,10.80
2019-03-12T10:20:49.123Z,10.80
2019-03-12T10:23:31.329Z,10.90
2019-03-12T10:26:20.301Z,11.00
2019-03-12T10:29:08.221Z,11.20
2019-03-12T10:31:58.157Z,11.50
2019-03-12T10:35:06.252Z,11.90
2019-03-12T10:37:54.655Z,12.30
2019-03-12T10:40:50.319Z,12.80
2019-03-12T10:43:48.057Z,12.30
2019-03-12T10:46:26.709Z,12.40
2019-03-12T10:48:57.561Z,12.10
2019-03-12T10:51:28.703Z,11.80
2019-03-12T10:53:58.785Z,11.60
2019-03-12T10:56:29.559Z,11.40
2019-03-12T10:59:00.103Z,11.20
2019-03-12T11:01:30.847Z,11.30
2019-03-12T11:04:02.805Z,11.60
2019-03-12T11:06:32.849Z,11.70
2019-03-12T11:09:06.364Z,11.50
2019-03-12T11:11:38.922Z,11.30
2019-03-12T11:14:09.658Z,11.00
2019-03-12T11:16:40.613Z,11.10
2019-03-12T11:19:11.477Z,11.10
2019-03-12T11:21:42.091Z,11.20
2019-03-12T11:24:13.017Z,11.20
2019-03-12T11:26:43.552Z,11.40
2019-03-12T11:29:13.878Z,11.60
2019-03-12T11:31:44.610Z,11.60
2019-03-12T11:34:15.767Z,11.60
2019-03-12T11:36:46.114Z,11.50
2019-03-12T11:39:16.646Z,11.30
2019-03-12T11:41:47.615Z,11.10
2019-03-12T11:44:18.714Z,10.90
2019-03-12T11:46:49.594Z,10.90
2019-03-12T11:49:20.144Z,10.80
2019-03-12T11:51:51.149Z,10.70
2019-03-12T11:54:22.325Z,10.60
2019-03-12T11:56:53.437Z,10.60
2019-03-12T11:59:24.330Z,10.50
2019-03-12T12:01:54.989Z,10.50
2019-03-12T12:04:25.653Z,10.50
2019-03-12T12:06:56.384Z,10.50
2019-03-12T12:09:28.100Z,10.60
2019-03-12T12:11:58.292Z,10.50
2019-03-12T12:14:29.830Z,10.50
2019-03-12T12:17:00.986Z,10.60
2019-03-12T12:19:31.637Z,10.50
2019-03-12T12:22:01.943Z,10.50
2019-03-12T12:24:32.993Z,10.50
2019-03-12T12:27:03.734Z,10.40
2019-03-12T12:29:34.235Z,10.40
2019-03-12T12:32:05.408Z,10.40
2019-03-12T12:34:36.143Z,10.50
2019-03-12T12:37:07.290Z,10.50
2019-03-12T12:39:37.892Z,10.60
2019-03-12T12:42:10.173Z,10.70
2019-03-12T12:44:43.203Z,10.80
2019-03-12T12:47:14.159Z,11.20
2019-03-12T12:49:44.934Z,11.70
2019-03-12T12:52:15.625Z,11.90
2019-03-12T12:54:46.326Z,11.90
2019-03-12T12:57:17.300Z,12.00
2019-03-12T12:59:48.035Z,12.20
2019-03-12T13:02:18.987Z,12.50
2019-03-12T13:04:50.120Z,13.40
2019-03-12T13:07:21.489Z,14.20
2019-03-12T13:09:52.185Z,14.40
2019-03-12T13:12:24.734Z,14.40
2019-03-12T13:14:55.935Z,14.20
2019-03-12T13:17:26.840Z,14.20
2019-03-12T13:19:56.863Z,14.00
2019-03-12T13:22:26.662Z,13.80
2019-03-12T13:24:58.080Z,13.80
2019-03-12T13:27:41.365Z,13.90
2019-03-12T13:30:02.626Z,13.70
2019-03-12T13:32:35.154Z,13.50
2019-03-12T13:35:07.394Z,13.20
2019-03-12T13:37:38.329Z,13.00
2019-03-12T13:40:10.169Z,12.80
2019-03-12T13:42:41.890Z,12.90
2019-03-12T13:45:13.828Z,13.20
2019-03-12T13:47:44.587Z,13.40
2019-03-12T13:50:25.769Z,13.60
2019-03-12T13:52:56.269Z,13.90
2019-03-12T13:55:27.412Z,13.90
2019-03-12T13:57:57.962Z,13.60
2019-03-12T14:00:32.935Z,13.20
2019-03-12T14:03:02.110Z,12.90
2019-03-12T14:05:32.780Z,12.50
2019-03-12T14:08:03.776Z,12.20
2019-03-12T14:10:34.769Z,12.10
2019-03-12T14:13:05.804Z,11.90
2019-03-12T14:15:36.611Z,11.90
2019-03-12T14:18:07.746Z,11.90
2019-03-12T14:20:43.413Z,11.90
2019-03-12T14:23:19.336Z,11.80
2019-03-12T14:25:51.244Z,11.80
2019-03-12T14:28:22.395Z,12.00
2019-03-12T14:30:52.727Z,12.20
2019-03-12T14:33:23.657Z,12.30
2019-03-12T14:35:54.502Z,12.50
2019-03-12T14:38:25.434Z,12.60
2019-03-12T14:40:56.283Z,12.70
2019-03-12T14:43:28.190Z,13.00
2019-03-12T14:46:00.223Z,13.10
2019-03-12T14:48:43.907Z,13.40
2019-03-12T14:51:35.689Z,13.50
2019-03-12T14:54:06.465Z,13.50
2019-03-12T14:56:37.346Z,13.40
2019-03-12T14:59:08.257Z,13.30
2019-03-12T15:01:39.269Z,13.10
2019-03-12T15:04:10.217Z,12.90
2019-03-12T15:06:40.541Z,12.60
2019-03-12T15:09:15.144Z,12.40
2019-03-12T15:11:46.475Z,12.20
2019-03-12T15:14:17.673Z,12.10
2019-03-12T15:16:48.619Z,11.90
2019-03-12T15:19:19.354Z,11.70
2019-03-12T15:21:49.846Z,11.50
2019-03-12T15:24:20.619Z,11.20
2019-03-12T15:26:51.970Z,11.00
2019-03-12T15:29:23.544Z,10.90
2019-03-12T15:32:03.554Z,10.80
2019-03-12T15:34:27.007Z,10.80
2019-03-12T15:36:58.007Z,10.70
2019-03-12T15:39:28.542Z,10.70
2019-03-12T15:41:58.801Z,10.70
2019-03-12T15:44:29.803Z,10.70
2019-03-12T15:47:01.304Z,10.60
2019-03-12T15:49:32.483Z,10.60
2019-03-12T15:52:03.865Z,10.60
2019-03-12T15:54:34.606Z,10.50
2019-03-12T15:57:05.959Z,10.50
2019-03-12T15:59:37.424Z,10.40
2019-03-12T16:02:08.484Z,10.30
2019-03-12T16:04:39.110Z,10.30
2019-03-12T16:07:10.336Z,10.30
2019-03-12T16:09:41.294Z,10.30
2019-03-12T16:12:13.722Z,10.20
2019-03-12T16:14:44.600Z,10.20
2019-03-12T16:17:15.521Z,10.20
2019-03-12T16:19:45.944Z,10.10
2019-03-12T16:22:17.030Z,10.10
2019-03-12T16:24:47.642Z,10.10
2019-03-12T16:27:18.164Z,10.10
2019-03-12T16:29:48.894Z,10.10
2019-03-12T16:32:19.988Z,10.10
2019-03-12T16:35:05.700Z,10.00
2019-03-12T16:37:38.250Z,10.00
2019-03-12T16:40:09.552Z,9.90
2019-03-12T16:42:39.936Z,9.90
2019-03-12T16:45:11.490Z,9.90
2019-03-12T16:47:42.638Z,9.80
2019-03-12T16:50:13.601Z,9.80
2019-03-12T16:52:44.909Z,9.80
2019-03-12T16:55:16.083Z,9.80
2019-03-12T16:57:47.027Z,9.80
2019-03-12T17:00:19.164Z,9.70
2019-03-12T17:02:50.124Z,9.70
2019-03-12T17:05:21.496Z,9.70
2019-03-12T17:07:51.396Z,9.70
2019-03-12T17:10:22.161Z,9.70
2019-03-12T17:12:52.586Z,9.70
2019-03-12T17:15:23.449Z,9.60
2019-03-12T17:17:53.276Z,9.60
2019-03-12T17:20:24.211Z,9.60
2019-03-12T17:22:54.306Z,9.50
2019-03-12T17:25:25.561Z,9.50
2019-03-12T17:27:56.303Z,9.50
2019-03-12T17:30:27.451Z,9.50
2019-03-12T17:32:58.190Z,9.40
2019-03-12T17:35:28.955Z,9.50
2019-03-12T17:38:00.291Z,9.40
2019-03-12T17:40:31.207Z,9.50
2019-03-12T17:43:01.584Z,9.50
2019-03-12T17:45:32.488Z,9.50
2019-03-12T17:48:03.623Z,9.50
2019-03-12T17:50:34.445Z,9.50
2019-03-12T17:53:06.032Z,9.50
2019-03-12T17:55:36.596Z,9.50
2019-03-12T17:58:08.029Z,9.50
2019-03-12T18:00:40.014Z,9.50
2019-03-12T18:03:10.389Z,9.50
2019-03-12T18:05:40.986Z,9.50
2019-03-12T18:08:11.297Z,9.50
2019-03-12T18:10:42.257Z,9.50
2019-03-12T18:13:13.445Z,9.60
2019-03-12T18:15:45.111Z,9.60
2019-03-12T18:18:15.483Z,9.60
2019-03-12T18:20:46.051Z,9.60
2019-03-12T18:23:16.842Z,9.60
2019-03-12T18:25:47.991Z,9.60
2019-03-12T18:28:19.359Z,9.60
2019-03-12T18:30:50.085Z,9.60
2019-03-12T18:33:20.443Z,9.60
2019-03-12T18:35:51.578Z,9.60
2019-03-12T18:38:22.307Z,9.70
2019-03-12T18:40:53.485Z,9.70
2019-03-12T18:43:23.930Z,9.70
2019-03-12T18:45:54.960Z,9.70
2019-03-12T18:48:25.878Z,9.70
2019-03-12T18:50:56.067Z,9.70
2019-03-12T18:53:26.905Z,9.70
2019-03-12T18:56:05.441Z,9.70
2019-03-12T18:58:35.871Z,9.70
2019-03-12T19:01:11.863Z,9.70
2019-03-12T19:03:42.342Z,9.70
2019-03-12T19:06:12.921Z,9.70
2019-03-12T19:08:48.165Z,9.70
2019-03-12T19:11:16.786Z,9.70
2019-03-12T19:13:47.742Z,9.70
2019-03-12T19:16:18.169Z,9.70
2019-03-12T19:18:48.288Z,9.70
2019-03-12T19:21:19.596Z,9.70
2019-03-12T19:23:50.535Z,9.70
2019-03-12T19:26:21.221Z,9.60
2019-03-12T19:28:52.433Z,9.70
2019-03-12T19:31:29.902Z,9.70
2019-03-12T19:34:04.725Z,9.60
2019-03-12T19:36:35.921Z,9.60
2019-03-12T19:39:09.723Z,9.60
2019-03-12T19:41:40.504Z,9.60
2019-03-12T19:44:10.850Z,9.60
2019-03-12T19:46:42.129Z,9.60
2019-03-12T19:49:13.287Z,9.50
2019-03-12T19:51:44.265Z,9.50
2019-03-12T19:54:14.633Z,9.50
2019-03-12T19:56:45.693Z,9.50
2019-03-12T19:59:16.862Z,9.50
2019-03-12T20:01:49.572Z,9.50
2019-03-12T20:04:20.543Z,9.50
2019-03-12T20:06:51.532Z,9.50
2019-03-12T20:09:44.009Z,9.50
2019-03-12T20:12:50.271Z,9.50
2019-03-12T20:16:03.327Z,9.50
2019-03-12T20:18:52.790Z,9.50
2019-03-12T20:22:16.879Z,9.50
2019-03-12T20:25:21.075Z,9.50
2019-03-12T20:28:35.752Z,9.50
2019-03-12T20:31:42.882Z,9.50
2019-03-12T20:34:51.162Z,9.50
2019-03-12T20:37:58.086Z,9.60
2019-03-12T20:41:08.422Z,9.50
2019-03-12T20:44:28.512Z,9.50
2019-03-12T20:47:48.403Z,9.50
2019-03-12T20:51:18.362Z,9.60
2019-03-12T20:54:37.613Z,9.60
2019-03-12T20:57:51.158Z,9.60
2019-03-12T21:01:12.886Z,9.60
2019-03-12T21:04:22.946Z,9.60
2019-03-12T21:07:21.334Z,9.60
2019-03-12T21:10:37.129Z,9.70
2019-03-12T21:13:40.641Z,9.70
2019-03-12T21:16:34.517Z,9.80
2019-03-12T21:19:55.328Z,9.80
2019-03-12T21:22:51.159Z,9.90
2019-03-12T21:26:00.382Z,10.00
2019-03-12T21:29:00.430Z,10.10
2019-03-12T21:31:30.983Z,10.10
2019-03-12T21:34:02.325Z,10.20
2019-03-12T21:36:32.822Z,10.30
2019-03-12T21:39:05.158Z,10.40
2019-03-12T21:41:37.805Z,10.50
2019-03-12T21:44:09.394Z,10.50
2019-03-12T21:46:40.812Z,10.60
2019-03-12T21:49:11.875Z,10.60
2019-03-12T21:51:42.205Z,10.60
2019-03-12T21:54:12.492Z,10.70
2019-03-12T21:56:44.903Z,10.80
2019-03-12T21:59:15.237Z,10.90
2019-03-12T22:01:46.377Z,11.10
2019-03-12T22:04:17.204Z,11.10
2019-03-12T22:06:48.474Z,11.20
2019-03-12T22:09:18.856Z,11.20
2019-03-12T22:11:50.160Z,11.20
2019-03-12T22:14:21.290Z,11.20
2019-03-12T22:16:54.710Z,11.20
2019-03-12T22:19:24.999Z,11.10
2019-03-12T22:22:14.613Z,11.10
2019-03-12T22:24:45.548Z,11.20
2019-03-12T22:27:16.501Z,11.10
2019-03-12T22:29:46.986Z,11.10
2019-03-12T22:32:17.970Z,11.10
2019-03-12T22:34:48.605Z,11.10
2019-03-12T22:37:20.064Z,11.10
2019-03-12T22:39:51.216Z,11.10
2019-03-12T22:42:21.771Z,11.20
2019-03-12T22:44:51.793Z,11.20
2019-03-12T22:47:22.660Z,11.20
2019-03-12T22:49:53.271Z,11.20
2019-03-12T22:52:23.862Z,11.20
2019-03-12T22:54:54.621Z,11.20
2019-03-12T22:57:25.361Z,11.20
2019-03-12T23:00:16.363Z,11.10
2019-03-12T23:03:05.131Z,11.00
2019-03-12T23:05:53.001Z,10.80
2019-03-12T23:08:43.067Z,10.60
2019-03-12T23:11:15.372Z,10.40
2019-03-12T23:13:47.830Z,10.20
2019-03-12T23:16:20.606Z,10.10
2019-03-12T23:18:53.253Z,10.00
2019-03-12T23:21:24.129Z,9.80
2019-03-12T23:23:55.285Z,9.70
2019-03-12T23:26:28.613Z,9.60
2019-03-12T23:28:59.829Z,9.50
2019-03-12T23:31:30.772Z,9.40
2019-03-12T23:34:01.920Z,9.30
2019-03-12T23:36:32.177Z,9.30
2019-03-12T23:39:04.251Z,9.20
2019-03-12T23:41:35.567Z,9.10
2019-03-12T23:44:07.535Z,9.00
2019-03-12T23:46:40.110Z,8.90
2019-03-12T23:49:10.639Z,8.80
2019-03-12T23:51:42.222Z,8.80
2019-03-12T23:54:13.159Z,8.70
2019-03-12T23:56:44.300Z,8.70
2019-03-12T23:59:15.474Z,8.70
